createdAt,value
2018-11-02T00:00:19.477Z,8.00
2018-11-02T00:05:21.697Z,9.90
2018-11-02T00:10:39.050Z,9.20
2018-11-02T00:15:41.257Z,9.13
2018-11-02T00:20:43.482Z,9.40
2018-11-02T00:25:45.702Z,9.30
2018-11-02T00:30:47.939Z,9.43
2018-11-02T00:35:50.157Z,10.10
2018-11-02T00:40:52.381Z,9.70
2018-11-02T00:45:54.688Z,9.43
2018-11-02T00:50:56.902Z,10.20
2018-11-02T00:55:59.139Z,9.93
2018-11-02T01:01:01.390Z,9.13
2018-11-02T01:06:03.702Z,9.30
2018-11-02T01:11:05.970Z,9.53
2018-11-02T01:16:08.226Z,9.63
2018-11-02T01:21:10.670Z,10.40
2018-11-02T01:26:12.902Z,10.07
2018-11-02T01:31:15.153Z,9.70
2018-11-02T01:36:17.390Z,9.67
2018-11-02T01:41:19.618Z,9.50
2018-11-02T01:46:21.825Z,9.70
2018-11-02T01:51:24.046Z,10.27
2018-11-02T01:56:26.257Z,8.83
2018-11-02T02:01:28.525Z,9.70
2018-11-02T02:06:30.779Z,9.37
2018-11-02T02:11:33.046Z,9.07
2018-11-02T02:16:35.277Z,9.43
2018-11-02T02:21:37.534Z,8.97
2018-11-02T02:26:39.786Z,8.67
2018-11-02T02:31:42.130Z,8.20
2018-11-02T02:36:44.399Z,8.60
2018-11-02T02:41:46.627Z,7.63
2018-11-02T02:46:48.865Z,6.77
2018-11-02T02:51:51.102Z,7.50
2018-11-02T02:56:53.335Z,7.37
2018-11-02T03:01:55.572Z,8.03
2018-11-02T03:06:57.818Z,7.87
2018-11-02T03:12:00.030Z,7.10
2018-11-02T03:17:02.258Z,7.03
2018-11-02T03:22:04.508Z,6.53
2018-11-02T03:27:06.761Z,6.60
2018-11-02T03:32:09.061Z,5.90
2018-11-02T03:37:11.277Z,6.27
2018-11-02T03:42:13.494Z,5.53
2018-11-02T03:47:15.730Z,5.50
2018-11-02T03:52:17.954Z,5.40
2018-11-02T03:57:20.210Z,4.73
2018-11-02T04:02:22.459Z,4.77
2018-11-02T04:07:24.693Z,4.87
2018-11-02T04:12:27.202Z,4.60
2018-11-02T04:17:32.393Z,5.03
2018-11-02T04:22:36.482Z,4.70
2018-11-02T04:27:38.694Z,6.10
2018-11-02T04:32:40.918Z,5.07
2018-11-02T04:37:43.171Z,5.70
2018-11-02T04:42:45.385Z,5.47
2018-11-02T04:47:47.658Z,6.27
2018-11-02T04:52:49.882Z,6.53
2018-11-02T04:57:52.151Z,5.80
2018-11-02T05:02:54.500Z,6.40
2018-11-02T05:07:56.752Z,6.47
2018-11-02T05:12:59.021Z,6.70
2018-11-02T05:18:01.245Z,6.63
2018-11-02T05:23:03.814Z,5.97
2018-11-02T05:28:06.077Z,6.70
2018-11-02T05:33:08.332Z,7.13
2018-11-02T05:38:10.594Z,6.60
2018-11-02T05:43:12.869Z,6.77
2018-11-02T05:48:15.214Z,6.47
2018-11-02T05:53:17.450Z,6.50
2018-11-02T05:58:19.670Z,6.90
2018-11-02T06:03:21.933Z,7.20
2018-11-02T06:08:24.136Z,7.93
2018-11-02T06:13:26.424Z,8.43
2018-11-02T06:18:28.579Z,8.53
2018-11-02T06:23:30.794Z,7.33
2018-11-02T06:28:33.066Z,7.40
2018-11-02T06:33:35.529Z,8.63
2018-11-02T06:38:37.803Z,8.30
2018-11-02T06:43:39.953Z,8.37
2018-11-02T06:48:42.174Z,8.43
2018-11-02T06:53:44.422Z,8.43
2018-11-02T06:58:46.694Z,7.43
2018-11-02T07:03:48.955Z,7.10
2018-11-02T07:08:51.201Z,6.10
2018-11-02T07:13:53.423Z,5.87
2018-11-02T07:18:55.700Z,5.80
2018-11-02T07:23:57.943Z,5.13
2018-11-02T07:29:00.186Z,5.40
2018-11-02T07:34:02.517Z,5.00
2018-11-02T07:39:07.229Z,4.80
2018-11-02T07:44:09.652Z,5.20
2018-11-02T07:49:11.893Z,4.80
2018-11-02T07:54:14.142Z,4.20
2018-11-02T07:59:16.390Z,4.30
2018-11-02T08:04:19.126Z,4.20
2018-11-02T08:09:21.384Z,4.70
2018-11-02T08:14:23.634Z,4.77
2018-11-02T08:19:25.897Z,5.37
2018-11-02T08:24:28.215Z,5.17
2018-11-02T08:29:30.385Z,5.33
2018-11-02T08:34:32.654Z,5.00
2018-11-02T08:39:34.902Z,4.73
2018-11-02T08:44:37.145Z,4.33
2018-11-02T08:49:39.392Z,4.07
2018-11-02T08:54:41.663Z,3.80
2018-11-02T08:59:44.169Z,4.20
2018-11-02T09:04:46.396Z,4.10
2018-11-02T09:09:48.654Z,4.10
2018-11-02T09:14:50.887Z,3.60
2018-11-02T09:19:53.338Z,3.93
2018-11-02T09:24:55.586Z,3.80
2018-11-02T09:29:57.786Z,4.10
2018-11-02T09:35:00.014Z,3.77
2018-11-02T09:40:02.282Z,4.23
2018-11-02T09:45:06.172Z,4.00
2018-11-02T09:50:09.210Z,3.87
2018-11-02T09:55:13.142Z,4.10
2018-11-02T10:00:15.385Z,4.50
2018-11-02T10:05:17.610Z,4.43
2018-11-02T10:10:19.851Z,3.83
2018-11-02T10:15:22.102Z,4.20
2018-11-02T10:20:24.331Z,5.30
2018-11-02T10:25:26.594Z,4.37
2018-11-02T10:30:28.858Z,4.80
2018-11-02T10:35:31.290Z,4.10
2018-11-02T10:40:33.830Z,3.87
2018-11-02T10:45:38.350Z,3.13
2018-11-02T10:50:40.614Z,2.83
2018-11-02T10:55:42.880Z,3.10
2018-11-02T11:00:51.167Z,2.80
2018-11-02T11:05:53.298Z,2.87
2018-11-02T11:10:55.590Z,2.97
2018-11-02T11:15:57.810Z,3.37
2018-11-02T11:21:00.074Z,3.33
2018-11-02T11:26:02.259Z,2.97
2018-11-02T11:31:04.497Z,2.33
2018-11-02T11:36:07.043Z,2.70
2018-11-02T11:41:09.290Z,2.60
2018-11-02T11:46:11.514Z,2.50
2018-11-02T11:51:13.783Z,3.53
2018-11-02T11:56:16.017Z,3.20
2018-11-02T12:01:18.260Z,2.63
2018-11-02T12:06:20.502Z,2.60
2018-11-02T12:11:22.753Z,2.30
2018-11-02T12:16:27.050Z,2.20
2018-11-02T12:21:29.321Z,2.67
2018-11-02T12:26:31.567Z,2.20
2018-11-02T12:31:33.841Z,2.30
2018-11-02T12:36:36.085Z,1.57
2018-11-02T12:41:38.663Z,2.10
2018-11-02T12:46:40.910Z,2.40
2018-11-02T12:51:43.182Z,2.20
2018-11-02T12:56:45.459Z,1.90
2018-11-02T13:01:47.682Z,2.10
2018-11-02T13:06:49.947Z,2.20
2018-11-02T13:11:52.290Z,1.90
2018-11-02T13:16:54.502Z,1.93
2018-11-02T13:21:56.862Z,2.20
2018-11-02T13:26:59.012Z,2.10
2018-11-02T13:32:01.343Z,2.00
2018-11-02T13:37:03.554Z,2.60
2018-11-02T13:42:05.817Z,2.40
2018-11-02T13:47:08.066Z,2.50
2018-11-02T13:52:10.797Z,2.77
2018-11-02T13:57:13.047Z,2.60
2018-11-02T14:02:15.281Z,2.00
2018-11-02T14:07:17.526Z,2.37
2018-11-02T14:12:19.786Z,2.17
2018-11-02T14:17:22.060Z,2.40
2018-11-02T14:22:24.299Z,2.10
2018-11-02T14:27:26.566Z,2.57
2018-11-02T14:32:28.810Z,2.30
2018-11-02T14:37:31.054Z,2.53
2018-11-02T14:42:33.392Z,3.80
2018-11-02T14:47:35.679Z,3.30
2018-11-02T14:52:38.266Z,3.73
2018-11-02T14:57:40.537Z,4.97
2018-11-02T15:02:42.790Z,3.50
2018-11-02T15:07:45.026Z,3.30
2018-11-02T15:12:47.266Z,4.03
2018-11-02T15:17:49.501Z,3.43
2018-11-02T15:22:51.758Z,3.80
2018-11-02T15:27:56.325Z,4.20
2018-11-02T15:32:58.651Z,3.17
2018-11-02T15:38:00.960Z,3.20
2018-11-02T15:43:03.296Z,14.90
2018-11-02T15:48:05.625Z,4.00
2018-11-02T15:53:07.905Z,3.27
2018-11-02T15:58:10.180Z,3.70
2018-11-02T16:03:12.559Z,4.17
2018-11-02T16:08:14.839Z,4.70
2018-11-02T16:13:17.166Z,4.20
2018-11-02T16:18:19.469Z,2.90
2018-11-02T16:23:21.789Z,3.23
2018-11-02T16:28:24.194Z,3.40
2018-11-02T16:33:26.547Z,3.00
2018-11-02T16:38:28.922Z,6.43
2018-11-02T16:43:32.548Z,3.50
2018-11-02T16:48:35.738Z,8.63
2018-11-02T16:53:44.439Z,11.87
2018-11-02T16:58:53.024Z,6.60
2018-11-02T17:04:01.476Z,8.10
2018-11-02T17:09:11.887Z,7.17
2018-11-02T17:14:16.030Z,5.80
2018-11-02T17:19:24.515Z,5.40
2018-11-02T17:24:26.926Z,5.80
2018-11-02T17:29:29.311Z,5.63
2018-11-02T17:34:31.694Z,6.50
2018-11-02T17:39:34.268Z,6.77
2018-11-02T17:44:36.759Z,16.10
2018-11-02T17:49:39.150Z,7.67
2018-11-02T17:54:41.584Z,6.23
2018-11-02T17:59:43.978Z,7.80
2018-11-02T18:04:46.545Z,7.13
2018-11-02T18:09:48.871Z,9.37
2018-11-02T18:14:51.207Z,6.87
2018-11-02T18:19:53.490Z,6.17
2018-11-02T18:24:55.761Z,6.07
2018-11-02T18:29:58.026Z,6.33
2018-11-02T18:35:00.500Z,6.70
2018-11-02T18:40:02.683Z,8.87
2018-11-02T18:45:06.900Z,10.30
2018-11-02T18:50:09.542Z,6.37
2018-11-02T18:55:11.838Z,7.97
2018-11-02T19:00:14.161Z,9.73
2018-11-02T19:05:17.562Z,7.67
2018-11-02T19:10:19.842Z,8.23
2018-11-02T19:15:22.129Z,7.77
2018-11-02T19:20:24.556Z,7.17
2018-11-02T19:25:26.871Z,7.80
2018-11-02T19:30:29.136Z,8.37
2018-11-02T19:35:31.508Z,7.20
2018-11-02T19:40:33.800Z,6.63
2018-11-02T19:45:36.074Z,7.97
2018-11-02T19:50:39.250Z,7.37
2018-11-02T19:55:41.632Z,6.97
2018-11-02T20:00:43.856Z,7.83
2018-11-02T20:05:46.132Z,8.13
2018-11-02T20:10:48.396Z,8.00
2018-11-02T20:15:50.657Z,8.70
2018-11-02T20:20:52.968Z,8.90
2018-11-02T20:25:55.660Z,9.20
2018-11-02T20:30:57.924Z,9.17
2018-11-02T20:36:00.486Z,8.50
2018-11-02T20:41:02.862Z,8.00
2018-11-02T20:46:05.407Z,8.37
2018-11-02T20:51:07.875Z,9.07
2018-11-02T20:56:10.432Z,6.60
2018-11-02T21:01:12.726Z,7.27
2018-11-02T21:06:15.016Z,6.80
2018-11-02T21:11:17.347Z,8.03
2018-11-02T21:16:19.697Z,7.63
2018-11-02T21:21:21.867Z,7.37
2018-11-02T21:26:24.225Z,7.00
2018-11-02T21:31:26.481Z,7.50
2018-11-02T21:36:28.754Z,7.20
2018-11-02T21:41:30.990Z,7.50
2018-11-02T21:46:33.471Z,6.93
2018-11-02T21:51:35.722Z,8.40
2018-11-02T21:56:38.021Z,10.53
2018-11-02T22:01:40.190Z,7.53
2018-11-02T22:06:42.433Z,7.30
2018-11-02T22:11:44.657Z,9.27
2018-11-02T22:16:47.165Z,6.73
2018-11-02T22:21:49.401Z,8.37
2018-11-02T22:26:51.857Z,8.67
2018-11-02T22:31:54.094Z,7.80
2018-11-02T22:36:56.326Z,6.43
2018-11-02T22:41:58.545Z,6.67
2018-11-02T22:47:00.858Z,7.23
2018-11-02T22:52:03.078Z,7.30
2018-11-02T22:57:05.325Z,8.17
2018-11-02T23:02:07.539Z,7.97
2018-11-02T23:07:09.747Z,6.70
2018-11-02T23:12:11.973Z,7.20
2018-11-02T23:17:14.314Z,7.00
2018-11-02T23:22:16.482Z,6.73
2018-11-02T23:27:18.746Z,6.50
2018-11-02T23:32:20.981Z,6.20
2018-11-02T23:37:23.249Z,6.90
2018-11-02T23:42:25.466Z,6.20
2018-11-02T23:47:27.863Z,5.80
2018-11-02T23:52:30.107Z,5.90
2018-11-02T23:57:32.354Z,5.53
